sensor_id;sensor_type;location;lat;lon;timestamp;P1;durP1;ratioP1;P2;durP2;ratioP2
43327;SDS011;28923;45.412;10.852;2023-04-03T00:00:10;1.23;;;0.70;;
43327;SDS011;28923;45.412;10.852;2023-04-03T00:02:36;0.90;;;0.70;;
43327;SDS011;28923;45.412;10.852;2023-04-03T00:05:01;4.03;;;0.85;;
43327;SDS011;28923;45.412;10.852;2023-04-03T00:07:26;0.93;;;0.70;;
43327;SDS011;28923;45.412;10.852;2023-04-03T00:09:52;1.05;;;0.80;;
43327;SDS011;28923;45.412;10.852;2023-04-03T00:12:17;0.80;;;0.70;;
43327;SDS011;28923;45.412;10.852;2023-04-03T00:14:43;1.13;;;0.70;;
43327;SDS011;28923;45.412;10.852;2023-04-03T00:17:08;1.10;;;0.80;;
43327;SDS011;28923;45.412;10.852;2023-04-03T00:19:33;1.30;;;0.70;;
43327;SDS011;28923;45.412;10.852;2023-04-03T00:22:00;2.13;;;1.17;;
43327;SDS011;28923;45.412;10.852;2023-04-03T00:24:25;0.70;;;0.70;;
43327;SDS011;28923;45.412;10.852;2023-04-03T00:26:50;0.73;;;0.63;;
43327;SDS011;28923;45.412;10.852;2023-04-03T00:29:16;0.85;;;0.60;;
43327;SDS011;28923;45.412;10.852;2023-04-03T00:31:41;0.75;;;0.60;;
43327;SDS011;28923;45.412;10.852;2023-04-03T00:34:06;1.25;;;0.60;;
43327;SDS011;28923;45.412;10.852;2023-04-03T00:36:32;1.45;;;0.80;;
43327;SDS011;28923;45.412;10.852;2023-04-03T00:38:57;1.17;;;0.90;;
43327;SDS011;28923;45.412;10.852;2023-04-03T00:41:23;0.73;;;0.70;;
43327;SDS011;28923;45.412;10.852;2023-04-03T00:43:48;0.68;;;0.68;;
43327;SDS011;28923;45.412;10.852;2023-04-03T00:46:14;0.60;;;0.60;;
43327;SDS011;28923;45.412;10.852;2023-04-03T00:48:43;0.63;;;0.63;;
43327;SDS011;28923;45.412;10.852;2023-04-03T00:51:11;0.90;;;0.70;;
43327;SDS011;28923;45.412;10.852;2023-04-03T00:53:44;0.90;;;0.60;;
43327;SDS011;28923;45.412;10.852;2023-04-03T00:56:12;0.70;;;0.70;;
43327;SDS011;28923;45.412;10.852;2023-04-03T00:58:40;1.02;;;0.63;;
43327;SDS011;28923;45.412;10.852;2023-04-03T01:01:06;1.38;;;0.60;;
43327;SDS011;28923;45.412;10.852;2023-04-03T01:03:33;0.65;;;0.60;;
43327;SDS011;28923;45.412;10.852;2023-04-03T01:06:01;0.80;;;0.77;;
43327;SDS011;28923;45.412;10.852;2023-04-03T01:08:27;0.60;;;0.55;;
43327;SDS011;28923;45.412;10.852;2023-04-03T01:10:53;1.17;;;0.70;;
43327;SDS011;28923;45.412;10.852;2023-04-03T01:13:24;0.95;;;0.85;;
43327;SDS011;28923;45.412;10.852;2023-04-03T01:15:50;0.57;;;0.55;;
43327;SDS011;28923;45.412;10.852;2023-04-03T01:18:16;0.85;;;0.70;;
43327;SDS011;28923;45.412;10.852;2023-04-03T01:20:50;0.63;;;0.63;;
43327;SDS011;28923;45.412;10.852;2023-04-03T01:25:50;1.73;;;0.82;;
43327;SDS011;28923;45.412;10.852;2023-04-03T01:28:17;0.80;;;0.68;;
43327;SDS011;28923;45.412;10.852;2023-04-03T01:33:14;0.55;;;0.55;;
43327;SDS011;28923;45.412;10.852;2023-04-03T01:35:40;0.70;;;0.70;;
43327;SDS011;28923;45.412;10.852;2023-04-03T01:38:05;0.70;;;0.65;;
43327;SDS011;28923;45.412;10.852;2023-04-03T01:40:32;1.45;;;1.05;;
43327;SDS011;28923;45.412;10.852;2023-04-03T01:42:57;0.73;;;0.57;;
43327;SDS011;28923;45.412;10.852;2023-04-03T01:45:22;0.65;;;0.52;;
43327;SDS011;28923;45.412;10.852;2023-04-03T01:47:48;0.47;;;0.47;;
43327;SDS011;28923;45.412;10.852;2023-04-03T01:50:13;0.73;;;0.73;;
43327;SDS011;28923;45.412;10.852;2023-04-03T01:52:39;0.70;;;0.60;;
43327;SDS011;28923;45.412;10.852;2023-04-03T01:55:05;0.50;;;0.50;;
43327;SDS011;28923;45.412;10.852;2023-04-03T01:57:30;0.90;;;0.50;;
43327;SDS011;28923;45.412;10.852;2023-04-03T01:59:56;3.55;;;0.70;;
43327;SDS011;28923;45.412;10.852;2023-04-03T02:02:21;0.77;;;0.75;;
43327;SDS011;28923;45.412;10.852;2023-04-03T02:04:47;1.00;;;0.60;;
43327;SDS011;28923;45.412;10.852;2023-04-03T02:07:12;2.70;;;0.70;;
43327;SDS011;28923;45.412;10.852;2023-04-03T02:09:37;0.90;;;0.70;;
43327;SDS011;28923;45.412;10.852;2023-04-03T02:12:03;0.68;;;0.60;;
43327;SDS011;28923;45.412;10.852;2023-04-03T02:14:29;0.90;;;0.65;;
43327;SDS011;28923;45.412;10.852;2023-04-03T02:16:55;0.73;;;0.60;;
43327;SDS011;28923;45.412;10.852;2023-04-03T02:19:21;1.50;;;0.57;;
43327;SDS011;28923;45.412;10.852;2023-04-03T02:21:47;1.05;;;0.77;;
43327;SDS011;28923;45.412;10.852;2023-04-03T02:24:13;0.60;;;0.40;;
43327;SDS011;28923;45.412;10.852;2023-04-03T02:26:39;0.52;;;0.50;;
43327;SDS011;28923;45.412;10.852;2023-04-03T02:29:04;0.60;;;0.40;;
43327;SDS011;28923;45.412;10.852;2023-04-03T02:31:30;0.60;;;0.60;;
43327;SDS011;28923;45.412;10.852;2023-04-03T02:33:58;1.10;;;0.55;;
43327;SDS011;28923;45.412;10.852;2023-04-03T02:36:23;0.60;;;0.60;;
43327;SDS011;28923;45.412;10.852;2023-04-03T02:38:53;0.63;;;0.40;;
43327;SDS011;28923;45.412;10.852;2023-04-03T02:41:19;0.68;;;0.55;;
43327;SDS011;28923;45.412;10.852;2023-04-03T02:43:46;1.38;;;0.55;;
43327;SDS011;28923;45.412;10.852;2023-04-03T02:46:11;0.90;;;0.60;;
43327;SDS011;28923;45.412;10.852;2023-04-03T02:48:39;0.60;;;0.60;;
43327;SDS011;28923;45.412;10.852;2023-04-03T02:51:05;0.63;;;0.47;;
43327;SDS011;28923;45.412;10.852;2023-04-03T02:53:30;0.40;;;0.40;;
43327;SDS011;28923;45.412;10.852;2023-04-03T02:55:57;1.75;;;0.52;;
43327;SDS011;28923;45.412;10.852;2023-04-03T02:58:22;0.57;;;0.43;;
43327;SDS011;28923;45.412;10.852;2023-04-03T03:00:48;0.80;;;0.60;;
43327;SDS011;28923;45.412;10.852;2023-04-03T03:03:13;1.52;;;0.60;;
43327;SDS011;28923;45.412;10.852;2023-04-03T03:05:40;0.60;;;0.40;;
43327;SDS011;28923;45.412;10.852;2023-04-03T03:08:05;0.40;;;0.40;;
43327;SDS011;28923;45.412;10.852;2023-04-03T03:10:30;0.70;;;0.47;;
43327;SDS011;28923;45.412;10.852;2023-04-03T03:12:56;0.40;;;0.40;;
43327;SDS011;28923;45.412;10.852;2023-04-03T03:15:22;1.08;;;0.57;;
43327;SDS011;28923;45.412;10.852;2023-04-03T03:17:47;0.52;;;0.43;;
43327;SDS011;28923;45.412;10.852;2023-04-03T03:20:13;0.90;;;0.40;;
43327;SDS011;28923;45.412;10.852;2023-04-03T03:22:41;0.70;;;0.60;;
43327;SDS011;28923;45.412;10.852;2023-04-03T03:25:06;1.52;;;0.50;;
43327;SDS011;28923;45.412;10.852;2023-04-03T03:27:31;0.40;;;0.40;;
43327;SDS011;28923;45.412;10.852;2023-04-03T03:29:57;1.65;;;0.50;;
43327;SDS011;28923;45.412;10.852;2023-04-03T03:32:22;0.40;;;0.40;;
43327;SDS011;28923;45.412;10.852;2023-04-03T03:34:48;0.68;;;0.65;;
43327;SDS011;28923;45.412;10.852;2023-04-03T03:37:13;0.70;;;0.40;;
43327;SDS011;28923;45.412;10.852;2023-04-03T03:39:39;0.50;;;0.50;;
43327;SDS011;28923;45.412;10.852;2023-04-03T03:42:04;0.40;;;0.40;;
43327;SDS011;28923;45.412;10.852;2023-04-03T03:44:30;0.45;;;0.30;;
43327;SDS011;28923;45.412;10.852;2023-04-03T03:46:56;0.77;;;0.50;;
43327;SDS011;28923;45.412;10.852;2023-04-03T03:49:22;0.95;;;0.40;;
43327;SDS011;28923;45.412;10.852;2023-04-03T03:51:47;0.30;;;0.30;;
43327;SDS011;28923;45.412;10.852;2023-04-03T03:54:13;1.58;;;0.40;;
43327;SDS011;28923;45.412;10.852;2023-04-03T03:56:39;0.35;;;0.35;;
43327;SDS011;28923;45.412;10.852;2023-04-03T03:59:05;0.43;;;0.43;;
43327;SDS011;28923;45.412;10.852;2023-04-03T04:01:31;0.22;;;0.22;;
43327;SDS011;28923;45.412;10.852;2023-04-03T04:03:56;1.70;;;0.60;;
43327;SDS011;28923;45.412;10.852;2023-04-03T04:06:26;0.40;;;0.30;;
43327;SDS011;28923;45.412;10.852;2023-04-03T04:08:55;0.60;;;0.52;;
43327;SDS011;28923;45.412;10.852;2023-04-03T04:11:20;0.68;;;0.40;;
43327;SDS011;28923;45.412;10.852;2023-04-03T04:13:48;0.50;;;0.30;;
43327;SDS011;28923;45.412;10.852;2023-04-03T04:16:15;0.52;;;0.38;;
43327;SDS011;28923;45.412;10.852;2023-04-03T04:18:40;0.60;;;0.45;;
43327;SDS011;28923;45.412;10.852;2023-04-03T04:21:06;0.52;;;0.40;;
43327;SDS011;28923;45.412;10.852;2023-04-03T04:23:31;0.90;;;0.60;;
43327;SDS011;28923;45.412;10.852;2023-04-03T04:25:58;0.50;;;0.50;;
43327;SDS011;28923;45.412;10.852;2023-04-03T04:28:26;0.35;;;0.35;;
43327;SDS011;28923;45.412;10.852;2023-04-03T04:30:53;0.40;;;0.40;;
43327;SDS011;28923;45.412;10.852;2023-04-03T04:33:20;0.60;;;0.55;;
43327;SDS011;28923;45.412;10.852;2023-04-03T04:35:47;0.57;;;0.47;;
43327;SDS011;28923;45.412;10.852;2023-04-03T04:38:12;0.32;;;0.28;;
43327;SDS011;28923;45.412;10.852;2023-04-03T04:40:38;0.55;;;0.40;;
43327;SDS011;28923;45.412;10.852;2023-04-03T04:43:03;0.77;;;0.60;;
43327;SDS011;28923;45.412;10.852;2023-04-03T04:45:29;0.63;;;0.40;;
43327;SDS011;28923;45.412;10.852;2023-04-03T04:47:55;0.40;;;0.40;;
43327;SDS011;28923;45.412;10.852;2023-04-03T04:50:23;0.40;;;0.40;;
43327;SDS011;28923;45.412;10.852;2023-04-03T04:52:48;1.58;;;0.40;;
43327;SDS011;28923;45.412;10.852;2023-04-03T04:55:14;0.60;;;0.30;;
43327;SDS011;28923;45.412;10.852;2023-04-03T04:57:39;1.63;;;0.40;;
43327;SDS011;28923;45.412;10.852;2023-04-03T05:00:05;1.33;;;0.45;;
43327;SDS011;28923;45.412;10.852;2023-04-03T05:02:31;0.80;;;0.50;;
43327;SDS011;28923;45.412;10.852;2023-04-03T05:04:56;1.13;;;0.50;;
43327;SDS011;28923;45.412;10.852;2023-04-03T05:07:26;2.90;;;0.50;;
43327;SDS011;28923;45.412;10.852;2023-04-03T05:09:51;0.40;;;0.40;;
43327;SDS011;28923;45.412;10.852;2023-04-03T05:12:17;4.30;;;0.60;;
43327;SDS011;28923;45.412;10.852;2023-04-03T05:14:48;3.08;;;0.70;;
43327;SDS011;28923;45.412;10.852;2023-04-03T05:17:14;0.70;;;0.45;;
43327;SDS011;28923;45.412;10.852;2023-04-03T05:19:45;1.23;;;0.60;;
43327;SDS011;28923;45.412;10.852;2023-04-03T05:22:11;1.85;;;0.65;;
43327;SDS011;28923;45.412;10.852;2023-04-03T05:24:38;1.23;;;0.65;;
43327;SDS011;28923;45.412;10.852;2023-04-03T05:27:04;3.50;;;0.50;;
43327;SDS011;28923;45.412;10.852;2023-04-03T05:29:32;2.13;;;0.52;;
43327;SDS011;28923;45.412;10.852;2023-04-03T05:31:59;2.83;;;0.98;;
43327;SDS011;28923;45.412;10.852;2023-04-03T05:34:25;4.97;;;0.82;;
43327;SDS011;28923;45.412;10.852;2023-04-03T05:36:53;3.40;;;1.10;;
43327;SDS011;28923;45.412;10.852;2023-04-03T05:39:18;1.15;;;0.55;;
43327;SDS011;28923;45.412;10.852;2023-04-03T05:41:46;3.35;;;0.65;;
43327;SDS011;28923;45.412;10.852;2023-04-03T05:44:11;8.73;;;0.80;;
43327;SDS011;28923;45.412;10.852;2023-04-03T05:46:37;4.80;;;0.80;;
43327;SDS011;28923;45.412;10.852;2023-04-03T05:49:05;1.60;;;0.50;;
43327;SDS011;28923;45.412;10.852;2023-04-03T05:51:34;7.45;;;0.65;;
43327;SDS011;28923;45.412;10.852;2023-04-03T05:54:12;5.07;;;1.95;;
43327;SDS011;28923;45.412;10.852;2023-04-03T05:56:39;5.45;;;1.98;;
43327;SDS011;28923;45.412;10.852;2023-04-03T05:59:05;14.35;;;2.97;;
43327;SDS011;28923;45.412;10.852;2023-04-03T06:01:30;9.48;;;3.22;;
43327;SDS011;28923;45.412;10.852;2023-04-03T06:03:56;5.90;;;3.47;;
43327;SDS011;28923;45.412;10.852;2023-04-03T06:06:23;16.10;;;3.45;;
43327;SDS011;28923;45.412;10.852;2023-04-03T06:08:49;9.50;;;3.72;;
43327;SDS011;28923;45.412;10.852;2023-04-03T06:11:15;8.18;;;2.97;;
43327;SDS011;28923;45.412;10.852;2023-04-03T06:13:40;9.85;;;3.22;;
43327;SDS011;28923;45.412;10.852;2023-04-03T06:16:06;10.40;;;2.78;;
43327;SDS011;28923;45.412;10.852;2023-04-03T06:18:31;7.95;;;2.90;;
43327;SDS011;28923;45.412;10.852;2023-04-03T06:20:57;6.10;;;2.60;;
43327;SDS011;28923;45.412;10.852;2023-04-03T06:23:23;8.63;;;3.10;;
43327;SDS011;28923;45.412;10.852;2023-04-03T06:25:49;7.18;;;2.35;;
43327;SDS011;28923;45.412;10.852;2023-04-03T06:28:14;6.72;;;2.60;;
43327;SDS011;28923;45.412;10.852;2023-04-03T06:30:40;8.65;;;2.45;;
43327;SDS011;28923;45.412;10.852;2023-04-03T06:33:05;8.25;;;2.45;;
43327;SDS011;28923;45.412;10.852;2023-04-03T06:35:31;11.10;;;2.70;;
43327;SDS011;28923;45.412;10.852;2023-04-03T06:37:56;8.40;;;2.10;;
43327;SDS011;28923;45.412;10.852;2023-04-03T06:40:23;10.43;;;2.50;;
43327;SDS011;28923;45.412;10.852;2023-04-03T06:42:48;12.32;;;2.53;;
43327;SDS011;28923;45.412;10.852;2023-04-03T06:45:16;6.05;;;2.08;;
43327;SDS011;28923;45.412;10.852;2023-04-03T06:47:41;7.78;;;2.30;;
43327;SDS011;28923;45.412;10.852;2023-04-03T06:50:07;13.48;;;2.65;;
43327;SDS011;28923;45.412;10.852;2023-04-03T06:52:34;8.38;;;2.28;;
43327;SDS011;28923;45.412;10.852;2023-04-03T06:54:59;7.15;;;1.90;;
43327;SDS011;28923;45.412;10.852;2023-04-03T06:57:25;5.35;;;2.30;;
43327;SDS011;28923;45.412;10.852;2023-04-03T06:59:51;13.30;;;2.60;;
43327;SDS011;28923;45.412;10.852;2023-04-03T07:02:17;6.75;;;1.90;;
43327;SDS011;28923;45.412;10.852;2023-04-03T07:04:42;13.25;;;2.00;;
43327;SDS011;28923;45.412;10.852;2023-04-03T07:07:07;7.93;;;2.10;;
43327;SDS011;28923;45.412;10.852;2023-04-03T07:09:33;12.63;;;2.22;;
43327;SDS011;28923;45.412;10.852;2023-04-03T07:11:58;7.97;;;2.25;;
43327;SDS011;28923;45.412;10.852;2023-04-03T07:14:24;6.68;;;1.80;;
43327;SDS011;28923;45.412;10.852;2023-04-03T07:16:50;13.27;;;2.15;;
43327;SDS011;28923;45.412;10.852;2023-04-03T07:19:15;10.60;;;2.13;;
43327;SDS011;28923;45.412;10.852;2023-04-03T07:21:40;9.05;;;2.13;;
43327;SDS011;28923;45.412;10.852;2023-04-03T07:24:07;9.25;;;2.05;;
43327;SDS011;28923;45.412;10.852;2023-04-03T07:26:32;7.90;;;1.88;;
43327;SDS011;28923;45.412;10.852;2023-04-03T07:28:58;4.82;;;1.70;;
43327;SDS011;28923;45.412;10.852;2023-04-03T07:31:23;9.40;;;2.17;;
43327;SDS011;28923;45.412;10.852;2023-04-03T07:33:48;6.25;;;2.00;;
43327;SDS011;28923;45.412;10.852;2023-04-03T07:36:16;6.28;;;1.98;;
43327;SDS011;28923;45.412;10.852;2023-04-03T07:38:41;8.73;;;2.05;;
43327;SDS011;28923;45.412;10.852;2023-04-03T07:41:07;8.27;;;1.45;;
43327;SDS011;28923;45.412;10.852;2023-04-03T07:43:36;8.18;;;1.52;;
43327;SDS011;28923;45.412;10.852;2023-04-03T07:46:01;5.03;;;1.75;;
43327;SDS011;28923;45.412;10.852;2023-04-03T07:48:29;7.32;;;1.58;;
43327;SDS011;28923;45.412;10.852;2023-04-03T07:50:58;3.33;;;1.42;;
43327;SDS011;28923;45.412;10.852;2023-04-03T07:53:24;10.10;;;1.55;;
43327;SDS011;28923;45.412;10.852;2023-04-03T07:55:49;7.45;;;1.70;;
43327;SDS011;28923;45.412;10.852;2023-04-03T07:58:17;4.78;;;1.33;;
43327;SDS011;28923;45.412;10.852;2023-04-03T08:00:43;3.47;;;1.40;;
43327;SDS011;28923;45.412;10.852;2023-04-03T08:03:09;3.28;;;1.50;;
43327;SDS011;28923;45.412;10.852;2023-04-03T08:05:45;4.80;;;1.70;;
43327;SDS011;28923;45.412;10.852;2023-04-03T08:08:12;2.92;;;1.38;;
43327;SDS011;28923;45.412;10.852;2023-04-03T08:10:39;3.38;;;1.02;;
43327;SDS011;28923;45.412;10.852;2023-04-03T08:13:05;5.22;;;1.38;;
43327;SDS011;28923;45.412;10.852;2023-04-03T08:15:30;4.93;;;1.42;;
43327;SDS011;28923;45.412;10.852;2023-04-03T08:17:56;4.07;;;1.30;;
43327;SDS011;28923;45.412;10.852;2023-04-03T08:20:22;4.13;;;1.15;;
43327;SDS011;28923;45.412;10.852;2023-04-03T08:22:47;3.08;;;0.90;;
43327;SDS011;28923;45.412;10.852;2023-04-03T08:25:13;5.38;;;1.15;;
43327;SDS011;28923;45.412;10.852;2023-04-03T08:27:38;3.55;;;1.20;;
43327;SDS011;28923;45.412;10.852;2023-04-03T08:30:04;3.55;;;1.33;;
43327;SDS011;28923;45.412;10.852;2023-04-03T08:32:30;4.93;;;1.02;;
43327;SDS011;28923;45.412;10.852;2023-04-03T08:34:55;2.03;;;1.10;;
43327;SDS011;28923;45.412;10.852;2023-04-03T08:37:21;2.53;;;1.13;;
43327;SDS011;28923;45.412;10.852;2023-04-03T08:39:46;4.60;;;1.13;;
43327;SDS011;28923;45.412;10.852;2023-04-03T08:45:10;1.80;;;1.13;;
43327;SDS011;28923;45.412;10.852;2023-04-03T08:47:38;1.80;;;1.00;;
43327;SDS011;28923;45.412;10.852;2023-04-03T08:50:07;3.63;;;1.02;;
43327;SDS011;28923;45.412;10.852;2023-04-03T08:52:36;2.25;;;1.20;;
43327;SDS011;28923;45.412;10.852;2023-04-03T08:55:04;1.92;;;0.90;;
43327;SDS011;28923;45.412;10.852;2023-04-03T08:57:34;0.82;;;0.70;;
43327;SDS011;28923;45.412;10.852;2023-04-03T09:00:03;1.73;;;0.88;;
43327;SDS011;28923;45.412;10.852;2023-04-03T09:02:51;1.42;;;0.90;;
43327;SDS011;28923;45.412;10.852;2023-04-03T09:05:50;1.05;;;0.90;;
43327;SDS011;28923;45.412;10.852;2023-04-03T09:08:24;0.98;;;0.88;;
43327;SDS011;28923;45.412;10.852;2023-04-03T09:15:42;2.40;;;0.93;;
43327;SDS011;28923;45.412;10.852;2023-04-03T09:18:16;2.90;;;0.80;;
43327;SDS011;28923;45.412;10.852;2023-04-03T09:23:14;2.10;;;0.80;;
43327;SDS011;28923;45.412;10.852;2023-04-03T09:25:40;3.13;;;1.23;;
43327;SDS011;28923;45.412;10.852;2023-04-03T09:28:06;1.25;;;0.75;;
43327;SDS011;28923;45.412;10.852;2023-04-03T09:30:35;0.80;;;0.70;;
43327;SDS011;28923;45.412;10.852;2023-04-03T09:33:00;1.58;;;0.63;;
43327;SDS011;28923;45.412;10.852;2023-04-03T09:37:53;1.40;;;0.77;;
43327;SDS011;28923;45.412;10.852;2023-04-03T09:42:50;2.40;;;0.70;;
43327;SDS011;28923;45.412;10.852;2023-04-03T09:45:26;0.93;;;0.70;;
43327;SDS011;28923;45.412;10.852;2023-04-03T09:50:30;0.73;;;0.63;;
43327;SDS011;28923;45.412;10.852;2023-04-03T09:52:55;1.95;;;0.90;;
43327;SDS011;28923;45.412;10.852;2023-04-03T09:55:25;2.50;;;0.80;;
43327;SDS011;28923;45.412;10.852;2023-04-03T09:57:59;0.90;;;0.60;;
43327;SDS011;28923;45.412;10.852;2023-04-03T10:00:30;1.77;;;0.57;;
43327;SDS011;28923;45.412;10.852;2023-04-03T10:02:58;2.17;;;0.77;;
43327;SDS011;28923;45.412;10.852;2023-04-03T10:05:37;1.17;;;0.70;;
43327;SDS011;28923;45.412;10.852;2023-04-03T10:10:41;0.75;;;0.70;;
43327;SDS011;28923;45.412;10.852;2023-04-03T10:15:46;0.90;;;0.70;;
43327;SDS011;28923;45.412;10.852;2023-04-03T10:20:46;1.08;;;0.70;;
43327;SDS011;28923;45.412;10.852;2023-04-03T10:23:16;1.77;;;0.80;;
43327;SDS011;28923;45.412;10.852;2023-04-03T10:38:35;2.72;;;1.38;;
43327;SDS011;28923;45.412;10.852;2023-04-03T10:41:29;3.17;;;1.00;;
43327;SDS011;28923;45.412;10.852;2023-04-03T10:46:27;3.83;;;1.10;;
43327;SDS011;28923;45.412;10.852;2023-04-03T10:59:17;4.10;;;0.82;;
43327;SDS011;28923;45.412;10.852;2023-04-03T11:01:44;3.50;;;0.90;;
43327;SDS011;28923;45.412;10.852;2023-04-03T11:04:10;4.38;;;0.85;;
43327;SDS011;28923;45.412;10.852;2023-04-03T11:09:15;2.40;;;0.75;;
43327;SDS011;28923;45.412;10.852;2023-04-03T11:11:42;1.70;;;0.90;;
43327;SDS011;28923;45.412;10.852;2023-04-03T11:14:27;7.55;;;1.52;;
43327;SDS011;28923;45.412;10.852;2023-04-03T11:17:15;5.38;;;0.90;;
43327;SDS011;28923;45.412;10.852;2023-04-03T11:22:26;5.05;;;0.93;;
43327;SDS011;28923;45.412;10.852;2023-04-03T11:24:55;2.28;;;0.82;;
43327;SDS011;28923;45.412;10.852;2023-04-03T11:27:22;1.88;;;0.70;;
43327;SDS011;28923;45.412;10.852;2023-04-03T11:29:48;1.92;;;0.73;;
43327;SDS011;28923;45.412;10.852;2023-04-03T11:35:01;1.48;;;0.73;;
43327;SDS011;28923;45.412;10.852;2023-04-03T11:40:39;1.05;;;0.63;;
43327;SDS011;28923;45.412;10.852;2023-04-03T11:42:40;1.05;;;0.50;;
43327;SDS011;28923;45.412;10.852;2023-04-03T11:47:47;4.75;;;0.90;;
43327;SDS011;28923;45.412;10.852;2023-04-03T11:52:59;2.72;;;0.70;;
43327;SDS011;28923;45.412;10.852;2023-04-03T12:16:29;1.67;;;0.80;;
43327;SDS011;28923;45.412;10.852;2023-04-03T12:21:22;1.63;;;0.88;;
43327;SDS011;28923;45.412;10.852;2023-04-03T12:29:02;0.65;;;0.60;;
43327;SDS011;28923;45.412;10.852;2023-04-03T12:31:42;1.73;;;0.55;;
43327;SDS011;28923;45.412;10.852;2023-04-03T12:36:42;0.80;;;0.50;;
43327;SDS011;28923;45.412;10.852;2023-04-03T12:50:16;1.55;;;0.38;;
43327;SDS011;28923;45.412;10.852;2023-04-03T12:52:47;0.63;;;0.50;;
43327;SDS011;28923;45.412;10.852;2023-04-03T12:55:18;1.13;;;0.60;;
43327;SDS011;28923;45.412;10.852;2023-04-03T12:57:44;0.82;;;0.52;;
43327;SDS011;28923;45.412;10.852;2023-04-03T13:02:55;1.15;;;0.50;;
43327;SDS011;28923;45.412;10.852;2023-04-03T13:05:21;1.00;;;0.55;;
43327;SDS011;28923;45.412;10.852;2023-04-03T13:08:20;1.05;;;0.70;;
43327;SDS011;28923;45.412;10.852;2023-04-03T13:13:24;2.00;;;0.63;;
43327;SDS011;28923;45.412;10.852;2023-04-03T13:15:55;1.13;;;0.57;;
43327;SDS011;28923;45.412;10.852;2023-04-03T13:18:25;0.82;;;0.50;;
43327;SDS011;28923;45.412;10.852;2023-04-03T13:20:52;0.75;;;0.50;;
43327;SDS011;28923;45.412;10.852;2023-04-03T13:23:17;2.38;;;0.73;;
43327;SDS011;28923;45.412;10.852;2023-04-03T13:25:45;2.45;;;0.50;;
43327;SDS011;28923;45.412;10.852;2023-04-03T13:28:17;0.77;;;0.60;;
43327;SDS011;28923;45.412;10.852;2023-04-03T13:30:55;1.20;;;0.50;;
43327;SDS011;28923;45.412;10.852;2023-04-03T13:33:22;0.90;;;0.57;;
43327;SDS011;28923;45.412;10.852;2023-04-03T13:35:54;0.88;;;0.80;;
43327;SDS011;28923;45.412;10.852;2023-04-03T13:38:27;1.55;;;0.70;;
43327;SDS011;28923;45.412;10.852;2023-04-03T13:40:57;2.85;;;0.70;;
43327;SDS011;28923;45.412;10.852;2023-04-03T13:43:30;0.98;;;0.50;;
43327;SDS011;28923;45.412;10.852;2023-04-03T13:46:01;4.63;;;0.60;;
43327;SDS011;28923;45.412;10.852;2023-04-03T13:48:39;0.75;;;0.60;;
43327;SDS011;28923;45.412;10.852;2023-04-03T13:51:13;3.40;;;0.57;;
43327;SDS011;28923;45.412;10.852;2023-04-03T13:53:43;3.73;;;0.63;;
43327;SDS011;28923;45.412;10.852;2023-04-03T13:56:16;1.65;;;0.57;;
43327;SDS011;28923;45.412;10.852;2023-04-03T13:58:51;6.10;;;1.05;;
43327;SDS011;28923;45.412;10.852;2023-04-03T14:01:19;2.03;;;0.70;;
43327;SDS011;28923;45.412;10.852;2023-04-03T14:03:56;1.20;;;0.40;;
43327;SDS011;28923;45.412;10.852;2023-04-03T14:06:22;2.35;;;0.60;;
43327;SDS011;28923;45.412;10.852;2023-04-03T14:08:48;4.65;;;0.77;;
43327;SDS011;28923;45.412;10.852;2023-04-03T14:11:24;1.98;;;0.70;;
43327;SDS011;28923;45.412;10.852;2023-04-03T14:13:52;2.05;;;0.70;;
43327;SDS011;28923;45.412;10.852;2023-04-03T14:16:19;3.08;;;0.75;;
43327;SDS011;28923;45.412;10.852;2023-04-03T14:18:45;2.95;;;0.80;;
43327;SDS011;28923;45.412;10.852;2023-04-03T14:21:12;0.75;;;0.40;;
43327;SDS011;28923;45.412;10.852;2023-04-03T14:23:38;1.85;;;0.70;;
43327;SDS011;28923;45.412;10.852;2023-04-03T14:26:05;3.47;;;0.60;;
43327;SDS011;28923;45.412;10.852;2023-04-03T14:28:31;1.05;;;0.40;;
43327;SDS011;28923;45.412;10.852;2023-04-03T14:30:57;1.38;;;0.60;;
43327;SDS011;28923;45.412;10.852;2023-04-03T14:33:23;1.15;;;0.50;;
43327;SDS011;28923;45.412;10.852;2023-04-03T14:35:48;2.63;;;0.70;;
43327;SDS011;28923;45.412;10.852;2023-04-03T14:38:25;1.08;;;0.60;;
43327;SDS011;28923;45.412;10.852;2023-04-03T14:40:51;0.75;;;0.50;;
43327;SDS011;28923;45.412;10.852;2023-04-03T14:43:17;3.92;;;0.63;;
43327;SDS011;28923;45.412;10.852;2023-04-03T14:45:43;2.05;;;0.57;;
43327;SDS011;28923;45.412;10.852;2023-04-03T14:48:10;1.77;;;0.50;;
43327;SDS011;28923;45.412;10.852;2023-04-03T14:50:41;0.75;;;0.55;;
43327;SDS011;28923;45.412;10.852;2023-04-03T14:53:07;3.03;;;0.70;;
43327;SDS011;28923;45.412;10.852;2023-04-03T14:55:33;1.90;;;0.50;;
43327;SDS011;28923;45.412;10.852;2023-04-03T14:57:58;2.58;;;0.80;;
43327;SDS011;28923;45.412;10.852;2023-04-03T15:00:24;1.92;;;0.60;;
43327;SDS011;28923;45.412;10.852;2023-04-03T15:02:50;1.02;;;0.75;;
43327;SDS011;28923;45.412;10.852;2023-04-03T15:05:16;0.60;;;0.40;;
43327;SDS011;28923;45.412;10.852;2023-04-03T15:07:44;1.27;;;0.50;;
43327;SDS011;28923;45.412;10.852;2023-04-03T15:12:44;0.60;;;0.50;;
43327;SDS011;28923;45.412;10.852;2023-04-03T15:15:11;1.02;;;0.50;;
43327;SDS011;28923;45.412;10.852;2023-04-03T15:17:37;1.33;;;0.63;;
43327;SDS011;28923;45.412;10.852;2023-04-03T15:20:05;4.20;;;0.90;;
43327;SDS011;28923;45.412;10.852;2023-04-03T15:22:36;2.13;;;0.60;;
43327;SDS011;28923;45.412;10.852;2023-04-03T15:25:02;1.40;;;1.00;;
43327;SDS011;28923;45.412;10.852;2023-04-03T15:27:28;2.78;;;0.60;;
43327;SDS011;28923;45.412;10.852;2023-04-03T15:29:54;0.70;;;0.52;;
43327;SDS011;28923;45.412;10.852;2023-04-03T15:32:20;1.65;;;0.47;;
43327;SDS011;28923;45.412;10.852;2023-04-03T15:34:46;1.90;;;0.60;;
43327;SDS011;28923;45.412;10.852;2023-04-03T15:37:12;1.50;;;0.50;;
43327;SDS011;28923;45.412;10.852;2023-04-03T15:39:37;1.75;;;0.70;;
43327;SDS011;28923;45.412;10.852;2023-04-03T15:42:03;0.60;;;0.60;;
43327;SDS011;28923;45.412;10.852;2023-04-03T15:44:32;1.40;;;0.60;;
43327;SDS011;28923;45.412;10.852;2023-04-03T15:46:58;1.42;;;0.77;;
43327;SDS011;28923;45.412;10.852;2023-04-03T15:49:25;2.22;;;0.57;;
43327;SDS011;28923;45.412;10.852;2023-04-03T15:51:51;2.47;;;0.90;;
43327;SDS011;28923;45.412;10.852;2023-04-03T15:54:17;1.92;;;0.65;;
43327;SDS011;28923;45.412;10.852;2023-04-03T15:56:43;3.22;;;0.70;;
43327;SDS011;28923;45.412;10.852;2023-04-03T15:59:09;6.65;;;0.95;;
43327;SDS011;28923;45.412;10.852;2023-04-03T16:01:34;3.55;;;0.82;;
43327;SDS011;28923;45.412;10.852;2023-04-03T16:04:01;0.95;;;0.43;;
43327;SDS011;28923;45.412;10.852;2023-04-03T16:06:27;3.05;;;0.85;;
43327;SDS011;28923;45.412;10.852;2023-04-03T16:08:55;7.80;;;0.98;;
43327;SDS011;28923;45.412;10.852;2023-04-03T16:11:24;1.67;;;0.70;;
43327;SDS011;28923;45.412;10.852;2023-04-03T16:13:50;2.40;;;0.70;;
43327;SDS011;28923;45.412;10.852;2023-04-03T16:16:16;3.08;;;1.00;;
43327;SDS011;28923;45.412;10.852;2023-04-03T16:18:42;3.22;;;0.70;;
43327;SDS011;28923;45.412;10.852;2023-04-03T16:21:08;3.78;;;0.65;;
43327;SDS011;28923;45.412;10.852;2023-04-03T16:23:35;5.47;;;1.35;;
43327;SDS011;28923;45.412;10.852;2023-04-03T16:26:01;7.75;;;1.85;;
43327;SDS011;28923;45.412;10.852;2023-04-03T16:28:27;8.80;;;1.58;;
43327;SDS011;28923;45.412;10.852;2023-04-03T16:30:53;12.35;;;1.77;;
43327;SDS011;28923;45.412;10.852;2023-04-03T16:33:19;5.28;;;1.27;;
43327;SDS011;28923;45.412;10.852;2023-04-03T16:35:46;5.18;;;1.90;;